Time;durP1;ratioP1;P1;durP2;ratioP2;P2;SDS_P1;SDS_P2;PMS_P1;PMS_P2;Temp;Humidity;BMP_temperature;BMP_pressure;BME280_temperature;BME280_humidity;BME280_pressure;Samples;Min_cycle;Max_cycle;Signal;HPM_P1;HPM_P2
2022/04/08 00:00:58;;;;;;;2.47;0.60;;;;;;;;;;5086627;28;20479;-68
2022/04/08 00:03:25;;;;;;;1.55;0.80;;;;;;;;;;5087919;28;20036;-70
2022/04/08 00:05:54;;;;;;;3.55;1.00;;;;;;;;;;5076784;28;20029;-66
2022/04/08 00:08:21;;;;;;;2.35;0.80;;;;;;;;;;5074709;28;20078;-66
2022/04/08 00:10:47;;;;;;;3.25;0.95;;;;;;;;;;5073488;28;20087;-70
2022/04/08 00:13:13;;;;;;;2.75;1.00;;;;;;;;;;5074156;28;20025;-68
2022/04/08 00:15:40;;;;;;;1.33;0.90;;;;;;;;;;5074207;28;20040;-69
2022/04/08 00:18:06;;;;;;;1.40;0.80;;;;;;;;;;5073014;28;20375;-69
2022/04/08 00:20:33;;;;;;;1.67;0.90;;;;;;;;;;5073801;28;20047;-67
2022/04/08 00:22:59;;;;;;;2.22;1.02;;;;;;;;;;5074467;28;20025;-74
2022/04/08 00:25:25;;;;;;;1.35;0.90;;;;;;;;;;5074093;28;20062;-67
2022/04/08 00:27:51;;;;;;;4.03;1.00;;;;;;;;;;5079141;28;20103;-66
2022/04/08 00:30:17;;;;;;;1.85;0.93;;;;;;;;;;5077589;28;20037;-67
2022/04/08 00:32:43;;;;;;;4.53;0.90;;;;;;;;;;5072861;28;20102;-66
2022/04/08 00:35:09;;;;;;;3.78;0.93;;;;;;;;;;5074153;28;20064;-67
2022/04/08 00:37:35;;;;;;;2.58;1.15;;;;;;;;;;5074045;28;20482;-66
2022/04/08 00:40:02;;;;;;;3.35;1.15;;;;;;;;;;5073855;28;20037;-67
2022/04/08 00:42:28;;;;;;;1.60;0.80;;;;;;;;;;5084506;28;20024;-68
2022/04/08 00:44:53;;;;;;;3.83;1.13;;;;;;;;;;5073538;28;20447;-66
2022/04/08 00:47:19;;;;;;;1.33;0.82;;;;;;;;;;5081256;28;20521;-66
2022/04/08 00:49:45;;;;;;;1.83;0.90;;;;;;;;;;5076980;28;20495;-65
2022/04/08 00:52:11;;;;;;;2.25;0.90;;;;;;;;;;5073633;28;20490;-65
2022/04/08 00:54:39;;;;;;;1.52;1.00;;;;;;;;;;5073166;28;20048;-67
2022/04/08 00:57:05;;;;;;;1.42;1.00;;;;;;;;;;5073355;28;20043;-67
2022/04/08 00:59:31;;;;;;;2.33;0.98;;;;;;;;;;5073573;28;20036;-66
2022/04/08 01:01:58;;;;;;;2.33;1.05;;;;;;;;;;5071815;28;20025;-68
2022/04/08 01:04:27;;;;;;;5.85;1.10;;;;;;;;;;5073158;28;20024;-67
2022/04/08 01:06:53;;;;;;;1.88;1.10;;;;;;;;;;5071724;28;20035;-67
2022/04/08 01:09:21;;;;;;;2.05;1.00;;;;;;;;;;5072719;28;20043;-68
2022/04/08 01:11:47;;;;;;;1.92;1.10;;;;;;;;;;5073244;28;20067;-72
2022/04/08 01:14:14;;;;;;;2.00;1.15;;;;;;;;;;5073217;28;20060;-73
2022/04/08 01:16:41;;;;;;;1.77;0.93;;;;;;;;;;5071941;28;20518;-71
2022/04/08 01:19:07;;;;;;;2.05;1.05;;;;;;;;;;5073149;28;20388;-71
2022/04/08 01:21:33;;;;;;;4.00;1.23;;;;;;;;;;5073115;28;20024;-72
2022/04/08 01:24:01;;;;;;;3.95;1.10;;;;;;;;;;5073111;28;20060;-71
2022/04/08 01:26:27;;;;;;;3.17;1.25;;;;;;;;;;5072721;28;20051;-74
2022/04/08 01:28:54;;;;;;;1.90;1.20;;;;;;;;;;5072815;28;20037;-70
2022/04/08 01:31:23;;;;;;;3.17;1.30;;;;;;;;;;5072793;28;20043;-70
2022/04/08 01:33:52;;;;;;;1.98;1.23;;;;;;;;;;5072549;28;20040;-69
2022/04/08 01:36:18;;;;;;;3.17;1.50;;;;;;;;;;5072646;28;20040;-69
2022/04/08 01:38:44;;;;;;;2.55;1.20;;;;;;;;;;5072692;28;20390;-72
2022/04/08 01:41:10;;;;;;;3.08;1.40;;;;;;;;;;5072580;28;20029;-67
2022/04/08 01:43:36;;;;;;;3.78;1.63;;;;;;;;;;5071147;28;20037;-73
2022/04/08 01:46:02;;;;;;;3.83;1.40;;;;;;;;;;5072368;28;20023;-72
2022/04/08 01:48:28;;;;;;;3.33;1.50;;;;;;;;;;5072034;28;20041;-69
2022/04/08 01:50:54;;;;;;;4.50;1.60;;;;;;;;;;5070996;28;20017;-66
2022/04/08 01:53:20;;;;;;;2.70;1.45;;;;;;;;;;5071632;28;20041;-73
2022/04/08 01:55:45;;;;;;;2.03;1.40;;;;;;;;;;5071993;28;20120;-68
2022/04/08 01:58:11;;;;;;;3.80;1.55;;;;;;;;;;5072540;28;20035;-69
2022/04/08 02:00:38;;;;;;;3.78;1.33;;;;;;;;;;5072234;28;20055;-71
2022/04/08 02:03:04;;;;;;;7.00;2.17;;;;;;;;;;5070579;28;20036;-73
2022/04/08 02:05:31;;;;;;;5.07;1.98;;;;;;;;;;5071805;28;20035;-73
2022/04/08 02:07:57;;;;;;;2.92;1.65;;;;;;;;;;5071725;28;20491;-70
2022/04/08 02:10:25;;;;;;;4.05;2.08;;;;;;;;;;5071630;28;20108;-71
2022/04/08 02:12:51;;;;;;;3.90;1.60;;;;;;;;;;5072317;28;20420;-68
2022/04/08 02:15:25;;;;;;;3.15;1.70;;;;;;;;;;5071978;28;20107;-67
2022/04/08 02:17:51;;;;;;;4.15;1.73;;;;;;;;;;5072190;28;20458;-65
2022/04/08 02:20:17;;;;;;;6.30;2.00;;;;;;;;;;5071879;28;20036;-71
2022/04/08 02:22:43;;;;;;;4.82;1.92;;;;;;;;;;5071459;28;20031;-68
2022/04/08 02:25:11;;;;;;;3.55;1.75;;;;;;;;;;5071680;28;20024;-70
2022/04/08 02:27:37;;;;;;;3.55;1.67;;;;;;;;;;5071250;28;20064;-69
2022/04/08 02:30:03;;;;;;;4.25;1.80;;;;;;;;;;5071325;28;20553;-72
2022/04/08 02:32:29;;;;;;;6.32;1.88;;;;;;;;;;5071696;28;20028;-70
2022/04/08 02:34:55;;;;;;;5.25;2.10;;;;;;;;;;5071645;28;20025;-71
2022/04/08 02:37:21;;;;;;;3.85;1.70;;;;;;;;;;5071608;28;20471;-71
2022/04/08 02:39:46;;;;;;;4.82;2.55;;;;;;;;;;5071870;28;20036;-72
2022/04/08 02:42:12;;;;;;;3.22;1.77;;;;;;;;;;5071466;28;20087;-67
2022/04/08 02:44:38;;;;;;;4.00;1.60;;;;;;;;;;5071389;28;20151;-68
2022/04/08 02:47:04;;;;;;;4.93;2.25;;;;;;;;;;5071573;28;20040;-66
2022/04/08 02:49:30;;;;;;;6.35;1.90;;;;;;;;;;5071154;28;20035;-68
2022/04/08 02:51:57;;;;;;;7.82;2.10;;;;;;;;;;5071583;28;20107;-67
2022/04/08 02:54:23;;;;;;;5.45;2.13;;;;;;;;;;5071194;28;20051;-67
2022/04/08 02:56:49;;;;;;;3.63;1.70;;;;;;;;;;5070167;28;20219;-70
2022/04/08 02:59:14;;;;;;;2.88;1.70;;;;;;;;;;5071491;28;20104;-67
2022/04/08 03:01:40;;;;;;;5.05;1.70;;;;;;;;;;5071506;28;20033;-67
2022/04/08 03:04:06;;;;;;;3.67;1.80;;;;;;;;;;5071316;28;20051;-65
2022/04/08 03:06:33;;;;;;;3.15;1.92;;;;;;;;;;5071300;28;20036;-66
2022/04/08 03:09:00;;;;;;;6.70;2.00;;;;;;;;;;5071142;28;20021;-65
2022/04/08 03:11:26;;;;;;;4.38;1.80;;;;;;;;;;5071412;28;20033;-67
2022/04/08 03:13:51;;;;;;;3.60;1.88;;;;;;;;;;5070730;28;20054;-67
2022/04/08 03:16:17;;;;;;;3.47;1.65;;;;;;;;;;5070798;28;20518;-67
2022/04/08 03:18:46;;;;;;;2.80;1.80;;;;;;;;;;5087521;28;20024;-66
2022/04/08 03:21:12;;;;;;;3.58;2.00;;;;;;;;;;5090732;28;20042;-68
2022/04/08 03:23:39;;;;;;;5.47;2.17;;;;;;;;;;5091495;28;20028;-67
2022/04/08 03:26:05;;;;;;;4.38;2.45;;;;;;;;;;5091393;28;20106;-66
2022/04/08 03:28:31;;;;;;;5.25;2.30;;;;;;;;;;5091170;28;20043;-67
2022/04/08 03:30:58;;;;;;;8.73;2.92;;;;;;;;;;5080179;28;20028;-66
2022/04/08 03:33:24;;;;;;;10.57;2.80;;;;;;;;;;5070897;28;20032;-67
2022/04/08 03:35:50;;;;;;;4.25;2.50;;;;;;;;;;5083307;28;20051;-68
2022/04/08 03:38:15;;;;;;;4.63;2.08;;;;;;;;;;5079385;28;20038;-67
2022/04/08 03:40:41;;;;;;;4.22;2.13;;;;;;;;;;5093407;28;20119;-67
2022/04/08 03:43:07;;;;;;;4.15;2.58;;;;;;;;;;5095403;28;20032;-66
2022/04/08 03:45:33;;;;;;;6.03;2.70;;;;;;;;;;5094688;28;20484;-68
2022/04/08 03:47:59;;;;;;;7.35;3.17;;;;;;;;;;5094974;28;20024;-67
2022/04/08 03:50:26;;;;;;;5.53;2.40;;;;;;;;;;5087581;28;20035;-68
2022/04/08 03:52:51;;;;;;;10.65;3.03;;;;;;;;;;5074423;28;20071;-67
2022/04/08 03:55:17;;;;;;;8.70;2.42;;;;;;;;;;5074517;28;20490;-67
2022/04/08 03:57:43;;;;;;;8.70;3.03;;;;;;;;;;5072624;28;20423;-65
2022/04/08 04:00:09;;;;;;;6.18;2.67;;;;;;;;;;5073653;28;20116;-66
2022/04/08 04:02:37;;;;;;;6.65;2.72;;;;;;;;;;5074432;28;20028;-68
2022/04/08 04:05:04;;;;;;;10.88;3.38;;;;;;;;;;5074244;28;20025;-67
2022/04/08 04:07:32;;;;;;;10.15;3.20;;;;;;;;;;5074190;28;20024;-68
2022/04/08 04:09:59;;;;;;;7.95;2.85;;;;;;;;;;5074015;28;20032;-67
2022/04/08 04:12:26;;;;;;;5.88;2.60;;;;;;;;;;5074309;28;20029;-67
2022/04/08 04:14:54;;;;;;;6.70;2.90;;;;;;;;;;5073690;28;20449;-68
2022/04/08 04:17:24;;;;;;;5.15;2.38;;;;;;;;;;5074066;28;20025;-67
2022/04/08 04:19:50;;;;;;;6.93;2.70;;;;;;;;;;5072535;28;20140;-68
2022/04/08 04:22:16;;;;;;;12.88;3.10;;;;;;;;;;5072858;28;20029;-71
2022/04/08 04:24:42;;;;;;;4.70;2.78;;;;;;;;;;5073028;28;20479;-72
2022/04/08 04:27:08;;;;;;;9.82;3.47;;;;;;;;;;5074470;28;20027;-72
2022/04/08 04:29:34;;;;;;;4.93;2.30;;;;;;;;;;5074321;28;20029;-72
2022/04/08 04:32:00;;;;;;;10.57;3.38;;;;;;;;;;5074795;28;20094;-73
2022/04/08 04:34:26;;;;;;;8.95;2.90;;;;;;;;;;5074782;28;20098;-75
2022/04/08 04:36:52;;;;;;;10.25;3.42;;;;;;;;;;5074455;28;20051;-76
2022/04/08 04:39:18;;;;;;;8.90;3.33;;;;;;;;;;5088069;28;20036;-77
2022/04/08 04:41:44;;;;;;;7.47;3.25;;;;;;;;;;5094379;28;20035;-75
2022/04/08 04:44:10;;;;;;;8.02;3.50;;;;;;;;;;5094746;28;20066;-76
2022/04/08 04:46:36;;;;;;;9.32;3.53;;;;;;;;;;5093980;28;20713;-76
2022/04/08 04:49:02;;;;;;;6.25;3.38;;;;;;;;;;5092611;28;20038;-74
2022/04/08 04:51:30;;;;;;;6.47;2.75;;;;;;;;;;5093920;28;20099;-76
2022/04/08 04:53:57;;;;;;;7.97;2.60;;;;;;;;;;5093903;28;20055;-73
2022/04/08 04:56:23;;;;;;;11.48;3.65;;;;;;;;;;5094007;28;20035;-75
2022/04/08 04:58:49;;;;;;;7.35;3.13;;;;;;;;;;5094060;28;20040;-73
2022/04/08 05:01:15;;;;;;;10.20;3.50;;;;;;;;;;5094118;28;20360;-77
2022/04/08 05:03:41;;;;;;;9.85;3.25;;;;;;;;;;5093372;28;20115;-77
2022/04/08 05:06:07;;;;;;;7.55;3.58;;;;;;;;;;5092482;28;20031;-75
2022/04/08 05:08:33;;;;;;;10.20;3.42;;;;;;;;;;5090527;28;20035;-77
2022/04/08 05:10:59;;;;;;;16.38;3.85;;;;;;;;;;5092064;28;20151;-76
2022/04/08 05:13:24;;;;;;;15.55;3.97;;;;;;;;;;5087036;28;20112;-77
2022/04/08 05:15:50;;;;;;;9.02;4.07;;;;;;;;;;5073515;28;20021;-78
2022/04/08 05:18:16;;;;;;;12.57;5.88;;;;;;;;;;5091688;28;20039;-76
2022/04/08 05:20:42;;;;;;;17.35;6.13;;;;;;;;;;5075188;28;20028;-75
2022/04/08 05:23:08;;;;;;;11.30;4.25;;;;;;;;;;5107467;28;20055;-76
2022/04/08 05:25:34;;;;;;;7.88;3.60;;;;;;;;;;5094639;28;20024;-76
2022/04/08 05:28:00;;;;;;;13.25;4.30;;;;;;;;;;5077826;28;20414;-74
2022/04/08 05:30:25;;;;;;;8.40;3.97;;;;;;;;;;5073644;28;20029;-75
2022/04/08 05:32:51;;;;;;;9.93;4.70;;;;;;;;;;5073609;28;20372;-77
2022/04/08 05:35:18;;;;;;;8.70;3.53;;;;;;;;;;5073337;28;20085;-77
2022/04/08 05:37:48;;;;;;;15.15;4.07;;;;;;;;;;5071919;28;20064;-77
2022/04/08 05:40:17;;;;;;;10.43;3.65;;;;;;;;;;5073490;28;20048;-73
2022/04/08 05:42:46;;;;;;;8.63;3.53;;;;;;;;;;5073099;28;20077;-72
2022/04/08 05:45:14;;;;;;;8.43;3.75;;;;;;;;;;5088569;28;20364;-75
2022/04/08 05:47:40;;;;;;;8.23;3.67;;;;;;;;;;5093750;28;20374;-75
2022/04/08 05:50:07;;;;;;;4.47;2.95;;;;;;;;;;5093445;28;20348;-77
2022/04/08 05:52:33;;;;;;;14.02;4.15;;;;;;;;;;5093053;28;20016;-76
2022/04/08 05:54:59;;;;;;;6.95;3.40;;;;;;;;;;5093019;28;20395;-77
2022/04/08 05:57:24;;;;;;;6.47;3.30;;;;;;;;;;5091992;28;20032;-76
2022/04/08 05:59:57;;;;;;;9.40;3.80;;;;;;;;;;5093474;28;20199;-77
2022/04/08 06:02:24;;;;;;;13.32;3.35;;;;;;;;;;5081251;28;20040;-78
2022/04/08 06:04:49;;;;;;;5.80;3.00;;;;;;;;;;5073782;28;20379;-76
2022/04/08 06:07:15;;;;;;;9.57;3.83;;;;;;;;;;5072949;28;20055;-78
2022/04/08 06:09:41;;;;;;;4.68;2.83;;;;;;;;;;5073017;28;20028;-77
2022/04/08 06:12:07;;;;;;;9.13;3.30;;;;;;;;;;5073081;28;20491;-74
2022/04/08 06:14:33;;;;;;;7.50;3.22;;;;;;;;;;5072519;28;20058;-78
2022/04/08 06:16:59;;;;;;;6.82;3.13;;;;;;;;;;5072599;28;20037;-76
2022/04/08 06:19:24;;;;;;;8.20;3.22;;;;;;;;;;5072442;28;20099;-77
2022/04/08 06:21:50;;;;;;;8.70;3.30;;;;;;;;;;5072605;28;20471;-77
2022/04/08 06:24:16;;;;;;;7.18;3.03;;;;;;;;;;5072703;28;20029;-77
2022/04/08 06:26:42;;;;;;;4.43;2.90;;;;;;;;;;5072584;28;20044;-74
2022/04/08 06:29:09;;;;;;;6.68;3.03;;;;;;;;;;5072167;28;20052;-74
2022/04/08 06:31:35;;;;;;;7.72;3.33;;;;;;;;;;5072332;28;20446;-73
2022/04/08 06:34:01;;;;;;;6.15;3.17;;;;;;;;;;5072431;28;20104;-77
2022/04/08 06:36:28;;;;;;;7.82;2.90;;;;;;;;;;5072455;28;20403;-75
2022/04/08 06:38:54;;;;;;;8.88;3.97;;;;;;;;;;5072647;28;20016;-73
2022/04/08 06:41:20;;;;;;;8.70;3.40;;;;;;;;;;5072288;28;20399;-77
2022/04/08 06:43:46;;;;;;;5.72;3.90;;;;;;;;;;5072818;28;20021;-77
2022/04/08 06:46:12;;;;;;;7.10;3.20;;;;;;;;;;5073427;28;20047;-76
2022/04/08 06:48:38;;;;;;;7.93;3.28;;;;;;;;;;5073695;28;20086;-75
2022/04/08 06:51:06;;;;;;;5.82;3.10;;;;;;;;;;5071842;28;20056;-75
2022/04/08 06:53:33;;;;;;;4.53;2.90;;;;;;;;;;5091911;28;20433;-78
2022/04/08 06:56:01;;;;;;;4.97;3.20;;;;;;;;;;5092150;28;20028;-78
2022/04/08 06:58:28;;;;;;;10.10;3.33;;;;;;;;;;5091987;28;20050;-79
2022/04/08 07:00:54;;;;;;;8.10;3.65;;;;;;;;;;5091991;28;20029;-78
2022/04/08 07:03:20;;;;;;;6.90;3.13;;;;;;;;;;5091693;28;20374;-79
2022/04/08 07:05:47;;;;;;;5.82;3.03;;;;;;;;;;5092167;28;20032;-78
2022/04/08 07:08:13;;;;;;;7.75;3.65;;;;;;;;;;5092203;28;20024;-75
2022/04/08 07:10:39;;;;;;;5.60;3.15;;;;;;;;;;5091977;28;20059;-77
2022/04/08 07:13:09;;;;;;;9.27;3.50;;;;;;;;;;5091902;28;20059;-75
2022/04/08 07:15:35;;;;;;;6.80;3.70;;;;;;;;;;5093809;28;20089;-76
2022/04/08 07:18:03;;;;;;;9.70;4.25;;;;;;;;;;5096104;28;20028;-76
2022/04/08 07:20:29;;;;;;;7.65;3.17;;;;;;;;;;5095641;28;20067;-75
2022/04/08 07:22:55;;;;;;;6.72;3.22;;;;;;;;;;5094534;28;20436;-78
2022/04/08 07:25:20;;;;;;;7.05;3.30;;;;;;;;;;5096387;28;20103;-76
2022/04/08 07:27:48;;;;;;;13.13;3.30;;;;;;;;;;5095880;28;20036;-75
2022/04/08 07:30:17;;;;;;;6.00;3.30;;;;;;;;;;5095794;28;20086;-78
2022/04/08 07:32:43;;;;;;;9.93;4.25;;;;;;;;;;5096022;28;20473;-78
2022/04/08 07:35:10;;;;;;;6.72;3.33;;;;;;;;;;5095346;28;20063;-77
2022/04/08 07:37:36;;;;;;;8.93;3.40;;;;;;;;;;5095395;28;20024;-77
2022/04/08 07:40:07;;;;;;;6.90;3.42;;;;;;;;;;5095757;28;20031;-80
2022/04/08 07:42:33;;;;;;;8.60;3.05;;;;;;;;;;5095647;28;20435;-78
2022/04/08 07:44:59;;;;;;;8.30;3.22;;;;;;;;;;5095038;28;20042;-79
2022/04/08 07:47:28;;;;;;;6.00;3.10;;;;;;;;;;5095303;28;20098;-79
2022/04/08 07:50:10;;;;;;;9.35;3.45;;;;;;;;;;5095505;28;20468;-77
2022/04/08 07:52:37;;;;;;;6.05;3.35;;;;;;;;;;5095096;28;20114;-77
2022/04/08 07:55:03;;;;;;;4.65;2.70;;;;;;;;;;5095441;28;20390;-75
2022/04/08 07:57:29;;;;;;;7.93;3.17;;;;;;;;;;5095249;28;20039;-78
2022/04/08 07:59:55;;;;;;;5.60;2.90;;;;;;;;;;5095036;28;20024;-80
2022/04/08 08:02:21;;;;;;;6.00;2.75;;;;;;;;;;5095315;28;20039;-79
2022/04/08 08:04:47;;;;;;;8.15;3.10;;;;;;;;;;5095120;28;20028;-78
2022/04/08 08:07:13;;;;;;;4.97;2.58;;;;;;;;;;5095253;28;20036;-77
2022/04/08 08:09:39;;;;;;;4.82;2.83;;;;;;;;;;5095259;28;20355;-77
2022/04/08 08:12:05;;;;;;;4.90;3.05;;;;;;;;;;5095002;28;20107;-79
2022/04/08 08:14:31;;;;;;;8.02;3.10;;;;;;;;;;5094802;28;20110;-76
2022/04/08 08:16:57;;;;;;;8.70;3.30;;;;;;;;;;5094950;28;20032;-77
2022/04/08 08:19:23;;;;;;;8.13;4.25;;;;;;;;;;5096050;28;20477;-76
2022/04/08 08:21:49;;;;;;;9.90;4.15;;;;;;;;;;5093999;28;20036;-76
2022/04/08 08:24:15;;;;;;;8.38;3.30;;;;;;;;;;5093472;28;20054;-77
2022/04/08 08:26:41;;;;;;;12.02;3.67;;;;;;;;;;5094237;28;20036;-75
2022/04/08 08:29:06;;;;;;;8.23;3.22;;;;;;;;;;5094297;28;20023;-78
2022/04/08 08:31:32;;;;;;;4.70;3.03;;;;;;;;;;5094605;28;20122;-78
2022/04/08 08:33:58;;;;;;;8.48;2.75;;;;;;;;;;5094450;28;20451;-80
2022/04/08 08:36:24;;;;;;;5.80;2.80;;;;;;;;;;5094108;28;20390;-77
2022/04/08 08:38:51;;;;;;;7.10;3.30;;;;;;;;;;5094751;28;20485;-79
2022/04/08 08:41:20;;;;;;;5.15;2.90;;;;;;;;;;5094805;28;20028;-79
2022/04/08 08:43:47;;;;;;;3.90;2.95;;;;;;;;;;5094702;28;20494;-77
2022/04/08 08:46:16;;;;;;;5.93;3.20;;;;;;;;;;5094461;28;20043;-75
2022/04/08 08:48:44;;;;;;;11.35;3.40;;;;;;;;;;5094260;28;20107;-76
2022/04/08 08:51:11;;;;;;;6.07;3.05;;;;;;;;;;5094013;28;20028;-77
2022/04/08 08:53:37;;;;;;;5.82;2.50;;;;;;;;;;5093875;28;20360;-76
2022/04/08 08:56:05;;;;;;;5.90;2.58;;;;;;;;;;5093811;28;20034;-76
2022/04/08 08:58:34;;;;;;;4.32;3.20;;;;;;;;;;5094354;28;20131;-76
2022/04/08 09:01:00;;;;;;;5.00;2.65;;;;;;;;;;5093997;28;20120;-77
2022/04/08 09:03:29;;;;;;;5.20;2.70;;;;;;;;;;5094234;28;20024;-75
2022/04/08 09:06:05;;;;;;;6.43;2.80;;;;;;;;;;5094016;28;20526;-75
2022/04/08 09:08:33;;;;;;;5.05;2.25;;;;;;;;;;5093974;28;20069;-77
2022/04/08 09:10:59;;;;;;;3.85;2.30;;;;;;;;;;5094053;28;20024;-79
2022/04/08 09:13:26;;;;;;;4.55;2.55;;;;;;;;;;5093718;28;20059;-76
2022/04/08 09:16:00;;;;;;;4.97;3.08;;;;;;;;;;5093375;28;20085;-76
2022/04/08 09:18:30;;;;;;;5.28;2.63;;;;;;;;;;5093859;28;20032;-75
2022/04/08 09:20:59;;;;;;;7.65;2.97;;;;;;;;;;5092121;28;20498;-76
2022/04/08 09:23:26;;;;;;;4.13;2.50;;;;;;;;;;5093782;28;20387;-75
2022/04/08 09:26:03;;;;;;;3.25;2.38;;;;;;;;;;5093776;28;20378;-75
2022/04/08 09:28:34;;;;;;;4.85;2.60;;;;;;;;;;5092978;28;20483;-74
2022/04/08 09:31:01;;;;;;;8.05;2.80;;;;;;;;;;5093345;28;20536;-75
2022/04/08 09:33:28;;;;;;;4.88;2.30;;;;;;;;;;5092779;28;20020;-76
2022/04/08 09:35:55;;;;;;;6.18;2.60;;;;;;;;;;5093416;28;20032;-75
2022/04/08 09:38:25;;;;;;;4.13;2.17;;;;;;;;;;5092621;28;20027;-75
2022/04/08 09:40:58;;;;;;;3.95;2.40;;;;;;;;;;5093194;28;20085;-78
2022/04/08 09:43:30;;;;;;;;;;;;;;;;;;5094131;28;20032;-75
2022/04/08 09:46:17;;;;;;;6.15;2.67;;;;;;;;;;5093162;28;19916;-76
2022/04/08 09:48:44;;;;;;;6.30;2.60;;;;;;;;;;5092806;28;20359;-75
2022/04/08 09:51:16;;;;;;;5.93;2.80;;;;;;;;;;5092582;28;20028;-74
2022/04/08 09:53:42;;;;;;;6.53;2.67;;;;;;;;;;5092837;28;20086;-74
2022/04/08 09:56:17;;;;;;;3.75;2.28;;;;;;;;;;5093100;28;20492;-74
2022/04/08 09:58:48;;;;;;;2.92;2.05;;;;;;;;;;5092731;28;20044;-78
2022/04/08 10:01:15;;;;;;;6.43;2.55;;;;;;;;;;5092994;28;20028;-73
2022/04/08 10:03:41;;;;;;;5.13;2.85;;;;;;;;;;5092518;28;20024;-75
2022/04/08 10:06:07;;;;;;;4.90;2.53;;;;;;;;;;5092616;28;20372;-74
2022/04/08 10:08:34;;;;;;;2.83;1.88;;;;;;;;;;5092757;28;20021;-74
2022/04/08 10:11:16;;;;;;;7.97;1.95;;;;;;;;;;5092331;28;20024;-74
2022/04/08 10:14:13;;;;;;;7.50;3.10;;;;;;;;;;5092201;28;20166;-74
2022/04/08 10:16:40;;;;;;;6.35;2.63;;;;;;;;;;5066432;28;20463;-76
2022/04/08 10:19:07;;;;;;;7.13;4.15;;;;;;;;;;5091033;28;20485;-76
2022/04/08 10:21:38;;;;;;;6.45;2.60;;;;;;;;;;5092214;28;20031;-75
2022/04/08 10:24:13;;;;;;;5.90;2.47;;;;;;;;;;5092119;28;20126;-77
2022/04/08 10:27:14;;;;;;;26.27;3.25;;;;;;;;;;5092077;28;20423;-76
2022/04/08 10:29:40;;;;;;;4.13;2.17;;;;;;;;;;5029774;28;20053;-73
2022/04/08 10:32:15;;;;;;;4.35;2.47;;;;;;;;;;5079610;28;20039;-73
2022/04/08 10:34:41;;;;;;;4.00;2.55;;;;;;;;;;5092179;28;20043;-74
2022/04/08 10:37:21;;;;;;;3.15;1.98;;;;;;;;;;5092786;28;20028;-74
2022/04/08 10:40:02;;;;;;;5.82;2.42;;;;;;;;;;5092338;28;20028;-74
2022/04/08 10:42:28;;;;;;;3.42;2.03;;;;;;;;;;5092333;28;20067;-72
2022/04/08 10:44:54;;;;;;;6.63;3.17;;;;;;;;;;5092192;28;20032;-72
2022/04/08 10:47:21;;;;;;;6.22;2.20;;;;;;;;;;5091981;28;20051;-72
2022/04/08 10:50:07;;;;;;;3.35;2.00;;;;;;;;;;5092034;28;20043;-73
2022/04/08 10:52:41;;;;;;;7.45;2.47;;;;;;;;;;5091469;28;20039;-73
2022/04/08 10:55:11;;;;;;;3.85;1.85;;;;;;;;;;5092343;28;20059;-75
2022/04/08 10:57:43;;;;;;;5.60;2.42;;;;;;;;;;5092570;28;20115;-74
2022/04/08 11:00:11;;;;;;;8.60;3.00;;;;;;;;;;5092429;28;20111;-73
2022/04/08 11:02:39;;;;;;;4.40;2.13;;;;;;;;;;5092098;28;20222;-77
2022/04/08 11:05:07;;;;;;;6.93;2.53;;;;;;;;;;5091878;28;20032;-75
2022/04/08 11:07:33;;;;;;;5.53;2.22;;;;;;;;;;5092411;28;20474;-74
2022/04/08 11:10:00;;;;;;;4.50;2.42;;;;;;;;;;5091854;28;20028;-73
2022/04/08 11:12:28;;;;;;;6.13;1.98;;;;;;;;;;5092292;28;20032;-74
2022/04/08 11:14:58;;;;;;;3.05;2.00;;;;;;;;;;5092550;28;20124;-76
2022/04/08 11:17:34;;;;;;;5.05;2.17;;;;;;;;;;5089089;28;20027;-73
2022/04/08 11:20:00;;;;;;;4.28;1.98;;;;;;;;;;5078706;28;20032;-77
2022/04/08 11:22:26;;;;;;;9.70;2.40;;;;;;;;;;5079663;28;20024;-75
2022/04/08 11:24:59;;;;;;;3.83;1.85;;;;;;;;;;5080952;28;20032;-76
2022/04/08 11:27:25;;;;;;;4.78;2.33;;;;;;;;;;5093625;28;20032;-75
2022/04/08 11:29:51;;;;;;;4.38;2.55;;;;;;;;;;5090658;28;20026;-76
2022/04/08 11:32:17;;;;;;;3.40;2.40;;;;;;;;;;5090674;28;20039;-76
2022/04/08 11:34:42;;;;;;;4.15;2.10;;;;;;;;;;5084555;28;20032;-75
2022/04/08 11:37:08;;;;;;;6.18;2.50;;;;;;;;;;5070870;28;20123;-73
2022/04/08 11:39:34;;;;;;;4.05;2.40;;;;;;;;;;5070678;28;20037;-76
2022/04/08 11:42:03;;;;;;;6.28;2.35;;;;;;;;;;5071189;28;20036;-74
2022/04/08 11:44:29;;;;;;;5.03;2.42;;;;;;;;;;5070238;28;20035;-75
2022/04/08 11:47:08;;;;;;;4.80;2.20;;;;;;;;;;5070041;28;20089;-73
2022/04/08 11:49:34;;;;;;;7.13;3.10;;;;;;;;;;5084489;28;20059;-69
2022/04/08 11:52:02;;;;;;;6.97;2.30;;;;;;;;;;5089882;28;20074;-73
2022/04/08 11:54:28;;;;;;;5.68;2.20;;;;;;;;;;5090009;28;20359;-71
2022/04/08 11:56:54;;;;;;;5.63;2.30;;;;;;;;;;5072407;28;20048;-69
2022/04/08 11:59:20;;;;;;;5.43;2.30;;;;;;;;;;5048453;28;20033;-70
2022/04/08 12:01:46;;;;;;;5.35;2.60;;;;;;;;;;5050107;28;20391;-70
2022/04/08 12:04:13;;;;;;;4.97;2.17;;;;;;;;;;5054653;28;20495;-69
2022/04/08 12:06:47;;;;;;;6.43;2.30;;;;;;;;;;5053695;28;20468;-69
2022/04/08 12:09:16;;;;;;;5.88;2.45;;;;;;;;;;5054356;28;20033;-69
2022/04/08 12:11:44;;;;;;;6.70;1.92;;;;;;;;;;5054494;28;20029;-70
2022/04/08 12:14:10;;;;;;;16.80;3.45;;;;;;;;;;5054976;28;20029;-71
2022/04/08 12:16:38;;;;;;;6.40;2.50;;;;;;;;;;5054411;28;20095;-70
2022/04/08 12:19:05;;;;;;;3.55;1.95;;;;;;;;;;5055002;28;20039;-69
2022/04/08 12:21:31;;;;;;;4.72;2.00;;;;;;;;;;5054753;28;20048;-69
2022/04/08 12:24:02;;;;;;;8.20;3.17;;;;;;;;;;5054453;28;20436;-69
2022/04/08 12:26:38;;;;;;;3.75;2.03;;;;;;;;;;5053653;28;20040;-69
2022/04/08 12:29:09;;;;;;;8.50;3.20;;;;;;;;;;5054366;28;20040;-68
2022/04/08 12:31:57;;;;;;;7.95;2.55;;;;;;;;;;5054150;28;20113;-70
2022/04/08 12:34:23;;;;;;;8.40;2.08;;;;;;;;;;5054283;28;20048;-68
2022/04/08 12:36:49;;;;;;;4.68;1.67;;;;;;;;;;5054213;28;20025;-70
2022/04/08 12:39:16;;;;;;;6.13;2.20;;;;;;;;;;5054312;28;20064;-68
2022/04/08 12:41:45;;;;;;;4.88;2.25;;;;;;;;;;5054467;28;20021;-77
2022/04/08 12:44:12;;;;;;;6.07;2.00;;;;;;;;;;5055718;28;20033;-75
2022/04/08 12:46:38;;;;;;;4.82;2.28;;;;;;;;;;5055009;28;20112;-73
2022/04/08 12:49:05;;;;;;;4.35;2.00;;;;;;;;;;5054405;28;20033;-75
2022/04/08 12:51:32;;;;;;;5.40;2.00;;;;;;;;;;5054243;28;20094;-75
2022/04/08 12:53:58;;;;;;;8.00;2.05;;;;;;;;;;5053731;28;20077;-73
2022/04/08 12:56:27;;;;;;;8.30;3.03;;;;;;;;;;5054362;28;20116;-74
2022/04/08 12:58:54;;;;;;;4.22;2.13;;;;;;;;;;5053923;28;20036;-78
2022/04/08 13:01:20;;;;;;;6.68;2.25;;;;;;;;;;5054213;28;20389;-73
2022/04/08 13:03:45;;;;;;;5.75;1.95;;;;;;;;;;5053883;28;20036;-73
2022/04/08 13:06:11;;;;;;;4.80;2.20;;;;;;;;;;5054034;28;20505;-76
2022/04/08 13:08:37;;;;;;;5.75;2.08;;;;;;;;;;5051573;28;20029;-75
2022/04/08 13:11:03;;;;;;;6.15;3.55;;;;;;;;;;5053883;28;20044;-73
2022/04/08 13:13:30;;;;;;;5.25;2.03;;;;;;;;;;5053668;28;20033;-72
2022/04/08 13:15:56;;;;;;;7.95;2.30;;;;;;;;;;5053669;28;20067;-69
2022/04/08 13:18:22;;;;;;;6.28;2.50;;;;;;;;;;5053670;28;20131;-70
2022/04/08 13:20:48;;;;;;;7.75;2.25;;;;;;;;;;5053212;28;20040;-72
2022/04/08 13:23:14;;;;;;;7.97;2.20;;;;;;;;;;5053465;28;20033;-71
2022/04/08 13:25:40;;;;;;;4.70;2.38;;;;;;;;;;5053681;28;20027;-74
2022/04/08 13:28:08;;;;;;;7.00;2.08;;;;;;;;;;5053540;28;20098;-71
2022/04/08 13:30:34;;;;;;;4.53;1.75;;;;;;;;;;5053750;28;20108;-73
2022/04/08 13:33:00;;;;;;;5.40;1.95;;;;;;;;;;5053249;28;20128;-75
2022/04/08 13:35:26;;;;;;;5.95;2.05;;;;;;;;;;5052079;28;20371;-68
2022/04/08 13:37:52;;;;;;;5.43;1.98;;;;;;;;;;5053247;28;20407;-72
2022/04/08 13:40:18;;;;;;;3.28;1.92;;;;;;;;;;5053014;28;20467;-73
2022/04/08 13:42:44;;;;;;;3.55;1.60;;;;;;;;;;5053052;28;20090;-72
2022/04/08 13:45:10;;;;;;;5.28;2.20;;;;;;;;;;5052848;28;20025;-70
2022/04/08 13:47:35;;;;;;;3.33;1.80;;;;;;;;;;5052598;28;20037;-69
2022/04/08 13:50:02;;;;;;;4.20;1.55;;;;;;;;;;5053271;28;20036;-70
2022/04/08 13:52:30;;;;;;;2.60;1.80;;;;;;;;;;5052684;28;20041;-70
2022/04/08 13:54:56;;;;;;;5.85;1.77;;;;;;;;;;5051563;28;20044;-69
2022/04/08 13:57:22;;;;;;;6.35;2.25;;;;;;;;;;5052847;28;20025;-72
2022/04/08 13:59:48;;;;;;;4.57;1.73;;;;;;;;;;5052626;28;20032;-70
2022/04/08 14:02:15;;;;;;;4.50;1.83;;;;;;;;;;5052298;28;20108;-72
2022/04/08 14:04:42;;;;;;;2.90;1.63;;;;;;;;;;5052465;28;20408;-73
2022/04/08 14:07:08;;;;;;;7.85;1.92;;;;;;;;;;5052671;28;20108;-72
2022/04/08 14:09:34;;;;;;;7.80;1.73;;;;;;;;;;5048792;28;20186;-72
2022/04/08 14:12:00;;;;;;;5.75;2.22;;;;;;;;;;5050330;28;20114;-71
2022/04/08 14:14:26;;;;;;;4.65;1.90;;;;;;;;;;5051226;28;20088;-72
2022/04/08 14:16:52;;;;;;;4.97;1.70;;;;;;;;;;5050840;28;20033;-71
2022/04/08 14:19:18;;;;;;;5.20;2.03;;;;;;;;;;5051560;28;20483;-72
2022/04/08 14:21:44;;;;;;;3.08;1.90;;;;;;;;;;5051225;28;20036;-73
2022/04/08 14:24:10;;;;;;;7.82;2.42;;;;;;;;;;5050742;28;20017;-73
2022/04/08 14:26:36;;;;;;;5.18;1.73;;;;;;;;;;5043970;28;20050;-71
2022/04/08 14:29:02;;;;;;;3.65;1.80;;;;;;;;;;5029866;28;20037;-69
2022/04/08 14:31:28;;;;;;;4.68;2.10;;;;;;;;;;5028267;28;20025;-72
2022/04/08 14:33:55;;;;;;;7.18;2.13;;;;;;;;;;5032252;28;20060;-72
2022/04/08 14:36:21;;;;;;;3.28;1.70;;;;;;;;;;5050183;28;20036;-72
2022/04/08 14:38:47;;;;;;;4.30;2.00;;;;;;;;;;5052345;28;20108;-73
2022/04/08 14:41:15;;;;;;;7.07;1.92;;;;;;;;;;5052621;28;20105;-73
2022/04/08 14:43:41;;;;;;;3.38;2.05;;;;;;;;;;5052362;28;20044;-74